sensor_id;sensor_type;location;lat;lon;timestamp;P1;durP1;ratioP1;P2;durP2;ratioP2
57663;SDS011;43493;53.098;6.064;2023-04-08T00:00:43;10.13;;;4.80;;
57663;SDS011;43493;53.098;6.064;2023-04-08T00:03:09;8.15;;;4.78;;
57663;SDS011;43493;53.098;6.064;2023-04-08T00:05:35;7.00;;;4.27;;
57663;SDS011;43493;53.098;6.064;2023-04-08T00:08:00;7.20;;;4.30;;
57663;SDS011;43493;53.098;6.064;2023-04-08T00:10:26;7.70;;;4.90;;
57663;SDS011;43493;53.098;6.064;2023-04-08T00:12:52;8.37;;;4.83;;
57663;SDS011;43493;53.098;6.064;2023-04-08T00:15:17;7.03;;;4.63;;
57663;SDS011;43493;53.098;6.064;2023-04-08T00:17:43;10.50;;;5.20;;
57663;SDS011;43493;53.098;6.064;2023-04-08T00:20:09;9.17;;;4.90;;
57663;SDS011;43493;53.098;6.064;2023-04-08T00:22:35;9.23;;;5.35;;
57663;SDS011;43493;53.098;6.064;2023-04-08T00:25:01;9.07;;;5.20;;
57663;SDS011;43493;53.098;6.064;2023-04-08T00:27:30;8.77;;;5.68;;
57663;SDS011;43493;53.098;6.064;2023-04-08T00:29:57;10.98;;;5.45;;
57663;SDS011;43493;53.098;6.064;2023-04-08T00:32:24;10.00;;;5.70;;
57663;SDS011;43493;53.098;6.064;2023-04-08T00:34:50;13.43;;;6.15;;
57663;SDS011;43493;53.098;6.064;2023-04-08T00:37:16;8.90;;;5.77;;
57663;SDS011;43493;53.098;6.064;2023-04-08T00:39:42;8.63;;;5.77;;
57663;SDS011;43493;53.098;6.064;2023-04-08T00:42:08;8.47;;;5.53;;
57663;SDS011;43493;53.098;6.064;2023-04-08T00:44:33;9.57;;;5.93;;
57663;SDS011;43493;53.098;6.064;2023-04-08T00:46:59;8.47;;;5.80;;
57663;SDS011;43493;53.098;6.064;2023-04-08T00:49:25;9.73;;;6.03;;
57663;SDS011;43493;53.098;6.064;2023-04-08T00:51:52;11.32;;;6.70;;
57663;SDS011;43493;53.098;6.064;2023-04-08T00:54:18;9.88;;;6.82;;
57663;SDS011;43493;53.098;6.064;2023-04-08T00:56:44;11.90;;;6.67;;
57663;SDS011;43493;53.098;6.064;2023-04-08T00:59:10;10.63;;;6.83;;
57663;SDS011;43493;53.098;6.064;2023-04-08T01:01:40;12.77;;;7.20;;
57663;SDS011;43493;53.098;6.064;2023-04-08T01:07:02;11.25;;;7.57;;
57663;SDS011;43493;53.098;6.064;2023-04-08T01:09:39;11.30;;;7.70;;
57663;SDS011;43493;53.098;6.064;2023-04-08T01:12:09;13.18;;;7.05;;
57663;SDS011;43493;53.098;6.064;2023-04-08T01:14:41;12.90;;;7.75;;
57663;SDS011;43493;53.098;6.064;2023-04-08T01:17:09;13.60;;;7.40;;
57663;SDS011;43493;53.098;6.064;2023-04-08T01:19:37;10.48;;;7.55;;
57663;SDS011;43493;53.098;6.064;2023-04-08T01:22:33;12.75;;;8.73;;
57663;SDS011;43493;53.098;6.064;2023-04-08T01:24:56;12.52;;;8.90;;
57663;SDS011;43493;53.098;6.064;2023-04-08T01:27:27;12.77;;;9.30;;
57663;SDS011;43493;53.098;6.064;2023-04-08T01:29:56;12.98;;;9.05;;
57663;SDS011;43493;53.098;6.064;2023-04-08T01:32:23;14.85;;;8.77;;
57663;SDS011;43493;53.098;6.064;2023-04-08T01:34:51;13.68;;;9.23;;
57663;SDS011;43493;53.098;6.064;2023-04-08T01:37:18;15.82;;;9.95;;
57663;SDS011;43493;53.098;6.064;2023-04-08T01:39:45;11.63;;;9.25;;
57663;SDS011;43493;53.098;6.064;2023-04-08T01:42:12;14.57;;;9.38;;
57663;SDS011;43493;53.098;6.064;2023-04-08T01:44:39;14.82;;;9.93;;
57663;SDS011;43493;53.098;6.064;2023-04-08T01:47:06;12.55;;;9.02;;
57663;SDS011;43493;53.098;6.064;2023-04-08T01:49:34;12.93;;;8.90;;
57663;SDS011;43493;53.098;6.064;2023-04-08T01:52:01;13.10;;;9.18;;
57663;SDS011;43493;53.098;6.064;2023-04-08T01:54:29;15.32;;;9.60;;
57663;SDS011;43493;53.098;6.064;2023-04-08T01:56:55;12.57;;;9.63;;
57663;SDS011;43493;53.098;6.064;2023-04-08T01:59:23;17.30;;;10.05;;
57663;SDS011;43493;53.098;6.064;2023-04-08T02:01:50;13.10;;;9.60;;
57663;SDS011;43493;53.098;6.064;2023-04-08T02:04:17;14.77;;;10.80;;
57663;SDS011;43493;53.098;6.064;2023-04-08T02:06:43;13.97;;;10.27;;
57663;SDS011;43493;53.098;6.064;2023-04-08T02:09:09;14.32;;;10.25;;
57663;SDS011;43493;53.098;6.064;2023-04-08T02:11:35;15.73;;;10.90;;
57663;SDS011;43493;53.098;6.064;2023-04-08T02:14:01;16.07;;;9.97;;
57663;SDS011;43493;53.098;6.064;2023-04-08T02:16:38;14.70;;;9.97;;
57663;SDS011;43493;53.098;6.064;2023-04-08T02:19:19;15.57;;;9.55;;
57663;SDS011;43493;53.098;6.064;2023-04-08T02:21:59;14.98;;;10.38;;
57663;SDS011;43493;53.098;6.064;2023-04-08T02:24:30;13.18;;;9.88;;
57663;SDS011;43493;53.098;6.064;2023-04-08T02:26:57;15.88;;;10.38;;
57663;SDS011;43493;53.098;6.064;2023-04-08T02:29:25;12.35;;;10.00;;
57663;SDS011;43493;53.098;6.064;2023-04-08T02:31:53;14.85;;;10.60;;
57663;SDS011;43493;53.098;6.064;2023-04-08T02:34:20;17.67;;;11.32;;
57663;SDS011;43493;53.098;6.064;2023-04-08T02:36:48;17.13;;;11.90;;
57663;SDS011;43493;53.098;6.064;2023-04-08T02:39:15;17.92;;;11.73;;
57663;SDS011;43493;53.098;6.064;2023-04-08T02:41:41;14.68;;;10.70;;
57663;SDS011;43493;53.098;6.064;2023-04-08T02:44:07;15.70;;;11.57;;
57663;SDS011;43493;53.098;6.064;2023-04-08T02:46:33;15.50;;;11.60;;
57663;SDS011;43493;53.098;6.064;2023-04-08T02:48:59;15.57;;;10.43;;
57663;SDS011;43493;53.098;6.064;2023-04-08T02:51:25;15.77;;;11.60;;
57663;SDS011;43493;53.098;6.064;2023-04-08T02:53:52;15.82;;;11.40;;
57663;SDS011;43493;53.098;6.064;2023-04-08T02:56:19;16.77;;;12.02;;
57663;SDS011;43493;53.098;6.064;2023-04-08T02:58:45;17.92;;;12.02;;
57663;SDS011;43493;53.098;6.064;2023-04-08T03:01:11;15.30;;;11.90;;
57663;SDS011;43493;53.098;6.064;2023-04-08T03:03:37;18.10;;;12.20;;
57663;SDS011;43493;53.098;6.064;2023-04-08T03:06:03;19.15;;;13.13;;
57663;SDS011;43493;53.098;6.064;2023-04-08T03:08:29;16.77;;;12.73;;
57663;SDS011;43493;53.098;6.064;2023-04-08T03:10:54;17.43;;;12.70;;
57663;SDS011;43493;53.098;6.064;2023-04-08T03:13:20;17.87;;;12.90;;
57663;SDS011;43493;53.098;6.064;2023-04-08T03:15:46;16.93;;;11.93;;
57663;SDS011;43493;53.098;6.064;2023-04-08T03:18:11;17.23;;;12.47;;
57663;SDS011;43493;53.098;6.064;2023-04-08T03:20:37;19.23;;;14.00;;
57663;SDS011;43493;53.098;6.064;2023-04-08T03:23:03;17.80;;;13.60;;
57663;SDS011;43493;53.098;6.064;2023-04-08T03:25:28;17.33;;;13.10;;
57663;SDS011;43493;53.098;6.064;2023-04-08T03:27:57;17.88;;;13.70;;
57663;SDS011;43493;53.098;6.064;2023-04-08T03:30:22;19.02;;;14.18;;
57663;SDS011;43493;53.098;6.064;2023-04-08T03:32:48;20.70;;;14.77;;
57663;SDS011;43493;53.098;6.064;2023-04-08T03:35:14;19.73;;;13.83;;
57663;SDS011;43493;53.098;6.064;2023-04-08T03:37:40;18.00;;;13.40;;
57663;SDS011;43493;53.098;6.064;2023-04-08T03:40:06;19.77;;;14.33;;
57663;SDS011;43493;53.098;6.064;2023-04-08T03:42:32;19.77;;;14.05;;
57663;SDS011;43493;53.098;6.064;2023-04-08T03:44:59;20.35;;;14.90;;
57663;SDS011;43493;53.098;6.064;2023-04-08T03:47:25;18.27;;;14.40;;
57663;SDS011;43493;53.098;6.064;2023-04-08T03:49:54;20.50;;;15.15;;
57663;SDS011;43493;53.098;6.064;2023-04-08T03:52:20;23.45;;;15.40;;
57663;SDS011;43493;53.098;6.064;2023-04-08T03:54:45;21.27;;;14.50;;
57663;SDS011;43493;53.098;6.064;2023-04-08T03:57:11;22.07;;;15.00;;
57663;SDS011;43493;53.098;6.064;2023-04-08T03:59:37;23.33;;;15.40;;
57663;SDS011;43493;53.098;6.064;2023-04-08T04:02:05;20.05;;;14.82;;
57663;SDS011;43493;53.098;6.064;2023-04-08T04:04:31;18.00;;;14.00;;
57663;SDS011;43493;53.098;6.064;2023-04-08T04:06:56;23.50;;;16.10;;
57663;SDS011;43493;53.098;6.064;2023-04-08T04:09:22;22.13;;;15.33;;
57663;SDS011;43493;53.098;6.064;2023-04-08T04:11:48;25.67;;;15.73;;
57663;SDS011;43493;53.098;6.064;2023-04-08T04:14:13;22.20;;;16.77;;
57663;SDS011;43493;53.098;6.064;2023-04-08T04:16:39;23.47;;;15.80;;
57663;SDS011;43493;53.098;6.064;2023-04-08T04:19:05;22.00;;;15.10;;
57663;SDS011;43493;53.098;6.064;2023-04-08T04:21:31;23.57;;;16.30;;
57663;SDS011;43493;53.098;6.064;2023-04-08T04:23:56;24.53;;;17.47;;
57663;SDS011;43493;53.098;6.064;2023-04-08T04:26:22;24.03;;;16.20;;
57663;SDS011;43493;53.098;6.064;2023-04-08T04:28:48;24.17;;;16.07;;
57663;SDS011;43493;53.098;6.064;2023-04-08T04:31:17;23.87;;;16.40;;
57663;SDS011;43493;53.098;6.064;2023-04-08T04:33:44;25.13;;;16.08;;
57663;SDS011;43493;53.098;6.064;2023-04-08T04:36:11;27.73;;;17.55;;
57663;SDS011;43493;53.098;6.064;2023-04-08T04:38:37;24.17;;;17.13;;
57663;SDS011;43493;53.098;6.064;2023-04-08T04:41:03;23.23;;;16.63;;
57663;SDS011;43493;53.098;6.064;2023-04-08T04:43:28;27.60;;;18.37;;
57663;SDS011;43493;53.098;6.064;2023-04-08T04:45:54;24.33;;;18.53;;
57663;SDS011;43493;53.098;6.064;2023-04-08T04:48:21;26.60;;;18.70;;
57663;SDS011;43493;53.098;6.064;2023-04-08T04:50:53;26.30;;;18.45;;
57663;SDS011;43493;53.098;6.064;2023-04-08T04:53:20;26.08;;;17.73;;
57663;SDS011;43493;53.098;6.064;2023-04-08T04:55:46;27.03;;;18.60;;
57663;SDS011;43493;53.098;6.064;2023-04-08T04:58:12;27.53;;;19.10;;
57663;SDS011;43493;53.098;6.064;2023-04-08T05:00:37;24.50;;;18.57;;
57663;SDS011;43493;53.098;6.064;2023-04-08T05:03:03;24.23;;;17.40;;
57663;SDS011;43493;53.098;6.064;2023-04-08T05:05:29;23.03;;;17.90;;
57663;SDS011;43493;53.098;6.064;2023-04-08T05:07:54;24.67;;;18.03;;
57663;SDS011;43493;53.098;6.064;2023-04-08T05:10:20;26.60;;;17.57;;
57663;SDS011;43493;53.098;6.064;2023-04-08T05:12:46;25.33;;;18.00;;
57663;SDS011;43493;53.098;6.064;2023-04-08T05:15:11;24.80;;;19.23;;
57663;SDS011;43493;53.098;6.064;2023-04-08T05:17:37;27.50;;;19.53;;
57663;SDS011;43493;53.098;6.064;2023-04-08T05:20:03;24.63;;;17.67;;
57663;SDS011;43493;53.098;6.064;2023-04-08T05:22:29;27.05;;;19.35;;
57663;SDS011;43493;53.098;6.064;2023-04-08T05:24:55;29.63;;;19.97;;
57663;SDS011;43493;53.098;6.064;2023-04-08T05:27:21;27.27;;;19.13;;
57663;SDS011;43493;53.098;6.064;2023-04-08T05:29:46;28.10;;;21.20;;
57663;SDS011;43493;53.098;6.064;2023-04-08T05:32:12;25.70;;;19.13;;
57663;SDS011;43493;53.098;6.064;2023-04-08T05:34:38;28.00;;;20.40;;
57663;SDS011;43493;53.098;6.064;2023-04-08T05:37:04;28.27;;;20.53;;
57663;SDS011;43493;53.098;6.064;2023-04-08T05:39:29;30.30;;;20.77;;
57663;SDS011;43493;53.098;6.064;2023-04-08T05:41:55;29.77;;;19.97;;
57663;SDS011;43493;53.098;6.064;2023-04-08T05:44:21;27.47;;;20.20;;
57663;SDS011;43493;53.098;6.064;2023-04-08T05:46:46;29.97;;;21.27;;
57663;SDS011;43493;53.098;6.064;2023-04-08T05:49:12;30.90;;;21.47;;
57663;SDS011;43493;53.098;6.064;2023-04-08T05:51:38;30.10;;;20.83;;
57663;SDS011;43493;53.098;6.064;2023-04-08T05:54:04;27.98;;;20.17;;
57663;SDS011;43493;53.098;6.064;2023-04-08T05:56:30;27.13;;;20.67;;
57663;SDS011;43493;53.098;6.064;2023-04-08T05:58:56;28.50;;;20.23;;
57663;SDS011;43493;53.098;6.064;2023-04-08T06:01:22;30.17;;;21.25;;
57663;SDS011;43493;53.098;6.064;2023-04-08T06:03:48;29.47;;;21.70;;
57663;SDS011;43493;53.098;6.064;2023-04-08T06:06:13;31.70;;;21.30;;
57663;SDS011;43493;53.098;6.064;2023-04-08T06:08:39;29.87;;;21.23;;
57663;SDS011;43493;53.098;6.064;2023-04-08T06:11:05;30.70;;;22.90;;
57663;SDS011;43493;53.098;6.064;2023-04-08T06:13:31;29.75;;;21.85;;
57663;SDS011;43493;53.098;6.064;2023-04-08T06:15:57;31.63;;;22.20;;
57663;SDS011;43493;53.098;6.064;2023-04-08T06:18:33;31.55;;;22.25;;
57663;SDS011;43493;53.098;6.064;2023-04-08T06:20:59;30.33;;;21.13;;
57663;SDS011;43493;53.098;6.064;2023-04-08T06:23:25;29.53;;;21.83;;
57663;SDS011;43493;53.098;6.064;2023-04-08T06:25:52;32.93;;;22.93;;
57663;SDS011;43493;53.098;6.064;2023-04-08T06:28:17;31.65;;;23.65;;
57663;SDS011;43493;53.098;6.064;2023-04-08T06:30:43;31.27;;;23.27;;
57663;SDS011;43493;53.098;6.064;2023-04-08T06:33:09;32.17;;;23.67;;
57663;SDS011;43493;53.098;6.064;2023-04-08T06:35:35;28.87;;;23.70;;
57663;SDS011;43493;53.098;6.064;2023-04-08T06:38:02;31.23;;;22.83;;
57663;SDS011;43493;53.098;6.064;2023-04-08T06:40:28;35.08;;;24.15;;
57663;SDS011;43493;53.098;6.064;2023-04-08T06:42:54;30.33;;;21.45;;
57663;SDS011;43493;53.098;6.064;2023-04-08T06:45:20;31.73;;;23.10;;
57663;SDS011;43493;53.098;6.064;2023-04-08T06:47:45;27.80;;;21.93;;
57663;SDS011;43493;53.098;6.064;2023-04-08T06:50:11;25.97;;;19.80;;
57663;SDS011;43493;53.098;6.064;2023-04-08T06:52:37;24.23;;;19.73;;
57663;SDS011;43493;53.098;6.064;2023-04-08T06:55:03;29.20;;;20.60;;
57663;SDS011;43493;53.098;6.064;2023-04-08T06:57:29;26.42;;;20.13;;
57663;SDS011;43493;53.098;6.064;2023-04-08T06:59:55;26.03;;;20.17;;
57663;SDS011;43493;53.098;6.064;2023-04-08T07:02:21;26.00;;;20.50;;
57663;SDS011;43493;53.098;6.064;2023-04-08T07:04:47;28.15;;;21.92;;
57663;SDS011;43493;53.098;6.064;2023-04-08T07:07:13;25.65;;;20.00;;
57663;SDS011;43493;53.098;6.064;2023-04-08T07:09:39;26.87;;;20.83;;
57663;SDS011;43493;53.098;6.064;2023-04-08T07:12:07;24.98;;;20.30;;
57663;SDS011;43493;53.098;6.064;2023-04-08T07:14:33;27.43;;;20.13;;
57663;SDS011;43493;53.098;6.064;2023-04-08T07:16:59;25.90;;;19.70;;
57663;SDS011;43493;53.098;6.064;2023-04-08T07:19:24;28.37;;;20.97;;
57663;SDS011;43493;53.098;6.064;2023-04-08T07:21:51;27.60;;;20.00;;
57663;SDS011;43493;53.098;6.064;2023-04-08T07:24:17;26.77;;;20.10;;
57663;SDS011;43493;53.098;6.064;2023-04-08T07:26:43;28.85;;;20.33;;
57663;SDS011;43493;53.098;6.064;2023-04-08T07:29:09;28.58;;;20.10;;
57663;SDS011;43493;53.098;6.064;2023-04-08T07:31:35;26.23;;;19.43;;
57663;SDS011;43493;53.098;6.064;2023-04-08T07:34:00;25.27;;;20.17;;
57663;SDS011;43493;53.098;6.064;2023-04-08T07:36:26;26.30;;;20.73;;
57663;SDS011;43493;53.098;6.064;2023-04-08T07:38:52;26.70;;;19.87;;
57663;SDS011;43493;53.098;6.064;2023-04-08T07:41:18;26.27;;;20.00;;
57663;SDS011;43493;53.098;6.064;2023-04-08T07:43:45;25.90;;;20.48;;
57663;SDS011;43493;53.098;6.064;2023-04-08T07:46:10;25.67;;;19.27;;
57663;SDS011;43493;53.098;6.064;2023-04-08T07:48:36;25.20;;;19.30;;
57663;SDS011;43493;53.098;6.064;2023-04-08T07:51:03;23.52;;;18.58;;
57663;SDS011;43493;53.098;6.064;2023-04-08T07:53:29;25.45;;;19.08;;
57663;SDS011;43493;53.098;6.064;2023-04-08T07:55:56;22.50;;;17.57;;
57663;SDS011;43493;53.098;6.064;2023-04-08T07:58:22;24.50;;;18.02;;
57663;SDS011;43493;53.098;6.064;2023-04-08T08:00:48;23.25;;;18.00;;
57663;SDS011;43493;53.098;6.064;2023-04-08T08:03:15;23.10;;;18.13;;
57663;SDS011;43493;53.098;6.064;2023-04-08T08:05:40;23.47;;;18.83;;
57663;SDS011;43493;53.098;6.064;2023-04-08T08:08:06;22.80;;;18.70;;
57663;SDS011;43493;53.098;6.064;2023-04-08T08:10:35;22.33;;;16.85;;
57663;SDS011;43493;53.098;6.064;2023-04-08T08:13:04;26.45;;;18.30;;
57663;SDS011;43493;53.098;6.064;2023-04-08T08:15:30;23.30;;;17.90;;
57663;SDS011;43493;53.098;6.064;2023-04-08T08:17:56;23.90;;;18.55;;
57663;SDS011;43493;53.098;6.064;2023-04-08T08:20:22;22.63;;;18.53;;
57663;SDS011;43493;53.098;6.064;2023-04-08T08:22:48;23.93;;;18.53;;
57663;SDS011;43493;53.098;6.064;2023-04-08T08:25:14;23.77;;;18.63;;
57663;SDS011;43493;53.098;6.064;2023-04-08T08:27:39;22.17;;;17.87;;
57663;SDS011;43493;53.098;6.064;2023-04-08T08:30:06;23.37;;;17.33;;
57663;SDS011;43493;53.098;6.064;2023-04-08T08:32:33;23.33;;;17.60;;
57663;SDS011;43493;53.098;6.064;2023-04-08T08:34:59;19.98;;;15.43;;
57663;SDS011;43493;53.098;6.064;2023-04-08T08:37:25;21.27;;;16.40;;
57663;SDS011;43493;53.098;6.064;2023-04-08T08:39:51;23.23;;;16.63;;
57663;SDS011;43493;53.098;6.064;2023-04-08T08:42:18;19.63;;;15.97;;
57663;SDS011;43493;53.098;6.064;2023-04-08T08:44:48;20.43;;;15.47;;
57663;SDS011;43493;53.098;6.064;2023-04-08T08:47:16;20.93;;;15.77;;
57663;SDS011;43493;53.098;6.064;2023-04-08T08:49:43;22.03;;;15.50;;
57663;SDS011;43493;53.098;6.064;2023-04-08T08:52:09;17.17;;;14.60;;
57663;SDS011;43493;53.098;6.064;2023-04-08T08:54:35;18.87;;;14.50;;
57663;SDS011;43493;53.098;6.064;2023-04-08T08:57:02;17.67;;;14.60;;
57663;SDS011;43493;53.098;6.064;2023-04-08T08:59:28;16.60;;;13.10;;
57663;SDS011;43493;53.098;6.064;2023-04-08T09:01:53;17.53;;;14.17;;
57663;SDS011;43493;53.098;6.064;2023-04-08T09:04:20;17.60;;;13.00;;
57663;SDS011;43493;53.098;6.064;2023-04-08T09:06:47;15.93;;;12.33;;
57663;SDS011;43493;53.098;6.064;2023-04-08T09:09:15;16.23;;;12.63;;
57663;SDS011;43493;53.098;6.064;2023-04-08T09:11:42;15.43;;;11.60;;
57663;SDS011;43493;53.098;6.064;2023-04-08T09:14:16;15.40;;;11.57;;
57663;SDS011;43493;53.098;6.064;2023-04-08T09:16:43;13.43;;;10.80;;
57663;SDS011;43493;53.098;6.064;2023-04-08T09:19:09;15.77;;;10.67;;
57663;SDS011;43493;53.098;6.064;2023-04-08T09:21:36;13.23;;;9.20;;
57663;SDS011;43493;53.098;6.064;2023-04-08T09:24:02;11.57;;;9.07;;
57663;SDS011;43493;53.098;6.064;2023-04-08T09:26:28;12.80;;;8.87;;
57663;SDS011;43493;53.098;6.064;2023-04-08T09:29:04;11.23;;;8.67;;
57663;SDS011;43493;53.098;6.064;2023-04-08T09:31:32;12.80;;;8.70;;
57663;SDS011;43493;53.098;6.064;2023-04-08T09:34:08;13.93;;;9.07;;
57663;SDS011;43493;53.098;6.064;2023-04-08T09:36:35;11.10;;;9.00;;
57663;SDS011;43493;53.098;6.064;2023-04-08T09:39:02;12.07;;;8.87;;
57663;SDS011;43493;53.098;6.064;2023-04-08T09:41:27;11.13;;;8.67;;
57663;SDS011;43493;53.098;6.064;2023-04-08T09:43:56;14.07;;;9.60;;
57663;SDS011;43493;53.098;6.064;2023-04-08T09:51:57;12.60;;;8.87;;
57663;SDS011;43493;53.098;6.064;2023-04-08T09:55:01;13.03;;;8.90;;
57663;SDS011;43493;53.098;6.064;2023-04-08T09:57:37;11.13;;;8.67;;
57663;SDS011;43493;53.098;6.064;2023-04-08T10:00:15;14.03;;;9.20;;
57663;SDS011;43493;53.098;6.064;2023-04-08T10:02:55;14.77;;;10.07;;
57663;SDS011;43493;53.098;6.064;2023-04-08T10:05:25;13.47;;;10.33;;
57663;SDS011;43493;53.098;6.064;2023-04-08T10:07:52;14.17;;;9.03;;
57663;SDS011;43493;53.098;6.064;2023-04-08T10:10:19;13.53;;;9.70;;
57663;SDS011;43493;53.098;6.064;2023-04-08T10:12:46;13.13;;;8.77;;
57663;SDS011;43493;53.098;6.064;2023-04-08T10:17:50;11.83;;;9.17;;
57663;SDS011;43493;53.098;6.064;2023-04-08T10:20:43;14.57;;;9.93;;
57663;SDS011;43493;53.098;6.064;2023-04-08T10:23:12;12.90;;;9.73;;
57663;SDS011;43493;53.098;6.064;2023-04-08T10:25:45;13.30;;;9.87;;
57663;SDS011;43493;53.098;6.064;2023-04-08T10:30:44;13.87;;;10.40;;
57663;SDS011;43493;53.098;6.064;2023-04-08T10:33:11;13.37;;;9.80;;
57663;SDS011;43493;53.098;6.064;2023-04-08T10:38:17;13.80;;;8.93;;
57663;SDS011;43493;53.098;6.064;2023-04-08T10:40:43;17.20;;;11.10;;
57663;SDS011;43493;53.098;6.064;2023-04-08T10:43:10;14.23;;;11.23;;
57663;SDS011;43493;53.098;6.064;2023-04-08T10:45:38;15.03;;;11.37;;
57663;SDS011;43493;53.098;6.064;2023-04-08T10:50:36;13.50;;;10.67;;
57663;SDS011;43493;53.098;6.064;2023-04-08T10:53:02;13.57;;;10.63;;
57663;SDS011;43493;53.098;6.064;2023-04-08T10:55:29;14.13;;;11.33;;
57663;SDS011;43493;53.098;6.064;2023-04-08T10:58:06;17.23;;;12.47;;
57663;SDS011;43493;53.098;6.064;2023-04-08T11:00:36;15.03;;;11.27;;
57663;SDS011;43493;53.098;6.064;2023-04-08T11:03:03;14.70;;;11.37;;
57663;SDS011;43493;53.098;6.064;2023-04-08T11:05:30;15.07;;;11.50;;
57663;SDS011;43493;53.098;6.064;2023-04-08T11:07:57;16.30;;;11.87;;
57663;SDS011;43493;53.098;6.064;2023-04-08T11:10:24;15.70;;;11.60;;
57663;SDS011;43493;53.098;6.064;2023-04-08T11:12:51;14.27;;;10.73;;
57663;SDS011;43493;53.098;6.064;2023-04-08T11:15:21;15.30;;;11.90;;
57663;SDS011;43493;53.098;6.064;2023-04-08T11:17:48;16.30;;;11.13;;
57663;SDS011;43493;53.098;6.064;2023-04-08T11:20:14;16.67;;;12.60;;
57663;SDS011;43493;53.098;6.064;2023-04-08T11:22:41;17.30;;;12.40;;
57663;SDS011;43493;53.098;6.064;2023-04-08T11:25:08;16.30;;;11.87;;
57663;SDS011;43493;53.098;6.064;2023-04-08T11:27:34;15.40;;;11.33;;
57663;SDS011;43493;53.098;6.064;2023-04-08T11:30:00;14.17;;;10.57;;
57663;SDS011;43493;53.098;6.064;2023-04-08T11:32:27;14.87;;;11.03;;
57663;SDS011;43493;53.098;6.064;2023-04-08T11:34:55;17.53;;;12.17;;
57663;SDS011;43493;53.098;6.064;2023-04-08T11:37:25;18.43;;;12.90;;
57663;SDS011;43493;53.098;6.064;2023-04-08T11:39:53;16.73;;;13.23;;
57663;SDS011;43493;53.098;6.064;2023-04-08T11:42:30;15.70;;;13.17;;
57663;SDS011;43493;53.098;6.064;2023-04-08T11:44:57;19.77;;;13.47;;
57663;SDS011;43493;53.098;6.064;2023-04-08T11:47:32;15.93;;;12.53;;
57663;SDS011;43493;53.098;6.064;2023-04-08T11:49:58;17.13;;;12.57;;
57663;SDS011;43493;53.098;6.064;2023-04-08T11:52:44;17.57;;;13.17;;
57663;SDS011;43493;53.098;6.064;2023-04-08T11:55:12;19.73;;;14.47;;
57663;SDS011;43493;53.098;6.064;2023-04-08T11:57:48;19.30;;;14.23;;
57663;SDS011;43493;53.098;6.064;2023-04-08T12:00:14;18.97;;;14.47;;
57663;SDS011;43493;53.098;6.064;2023-04-08T12:02:39;20.17;;;14.97;;
57663;SDS011;43493;53.098;6.064;2023-04-08T12:05:05;19.07;;;14.40;;
57663;SDS011;43493;53.098;6.064;2023-04-08T12:07:31;17.27;;;13.23;;
57663;SDS011;43493;53.098;6.064;2023-04-08T12:09:57;19.47;;;14.40;;
57663;SDS011;43493;53.098;6.064;2023-04-08T12:12:23;19.73;;;14.47;;
57663;SDS011;43493;53.098;6.064;2023-04-08T12:14:48;19.17;;;13.57;;
57663;SDS011;43493;53.098;6.064;2023-04-08T12:17:14;21.13;;;15.13;;
57663;SDS011;43493;53.098;6.064;2023-04-08T12:19:40;20.03;;;14.47;;
57663;SDS011;43493;53.098;6.064;2023-04-08T12:22:06;17.63;;;13.40;;
57663;SDS011;43493;53.098;6.064;2023-04-08T12:24:32;20.90;;;14.33;;
57663;SDS011;43493;53.098;6.064;2023-04-08T12:26:58;21.80;;;14.90;;
57663;SDS011;43493;53.098;6.064;2023-04-08T12:29:23;23.00;;;15.00;;
57663;SDS011;43493;53.098;6.064;2023-04-08T12:31:49;22.83;;;16.10;;
57663;SDS011;43493;53.098;6.064;2023-04-08T12:34:15;23.10;;;15.00;;
57663;SDS011;43493;53.098;6.064;2023-04-08T12:36:41;23.30;;;15.90;;
57663;SDS011;43493;53.098;6.064;2023-04-08T12:39:08;24.97;;;15.90;;
57663;SDS011;43493;53.098;6.064;2023-04-08T12:41:34;20.57;;;14.40;;
57663;SDS011;43493;53.098;6.064;2023-04-08T12:44:00;21.30;;;14.73;;
57663;SDS011;43493;53.098;6.064;2023-04-08T12:46:26;24.23;;;14.97;;
57663;SDS011;43493;53.098;6.064;2023-04-08T12:48:52;23.33;;;15.30;;
57663;SDS011;43493;53.098;6.064;2023-04-08T12:51:18;22.60;;;15.27;;
57663;SDS011;43493;53.098;6.064;2023-04-08T12:53:44;22.17;;;15.60;;
57663;SDS011;43493;53.098;6.064;2023-04-08T12:56:10;22.53;;;15.80;;
57663;SDS011;43493;53.098;6.064;2023-04-08T12:58:35;22.77;;;16.47;;
57663;SDS011;43493;53.098;6.064;2023-04-08T13:01:01;21.97;;;15.30;;
57663;SDS011;43493;53.098;6.064;2023-04-08T13:03:27;25.60;;;16.93;;
57663;SDS011;43493;53.098;6.064;2023-04-08T13:05:55;26.43;;;17.90;;
57663;SDS011;43493;53.098;6.064;2023-04-08T13:08:23;22.57;;;16.40;;
57663;SDS011;43493;53.098;6.064;2023-04-08T13:10:49;24.70;;;17.23;;
57663;SDS011;43493;53.098;6.064;2023-04-08T13:13:15;27.10;;;18.63;;
57663;SDS011;43493;53.098;6.064;2023-04-08T13:15:41;26.37;;;18.63;;
57663;SDS011;43493;53.098;6.064;2023-04-08T13:18:07;24.37;;;17.93;;
57663;SDS011;43493;53.098;6.064;2023-04-08T13:20:33;25.67;;;18.33;;
57663;SDS011;43493;53.098;6.064;2023-04-08T13:22:59;23.57;;;17.03;;
57663;SDS011;43493;53.098;6.064;2023-04-08T13:25:25;22.73;;;16.73;;
57663;SDS011;43493;53.098;6.064;2023-04-08T13:27:51;26.17;;;17.10;;
57663;SDS011;43493;53.098;6.064;2023-04-08T13:30:17;25.23;;;18.03;;
57663;SDS011;43493;53.098;6.064;2023-04-08T13:32:42;28.43;;;18.13;;
57663;SDS011;43493;53.098;6.064;2023-04-08T13:35:08;24.07;;;17.10;;
57663;SDS011;43493;53.098;6.064;2023-04-08T13:37:34;22.83;;;17.80;;
57663;SDS011;43493;53.098;6.064;2023-04-08T13:40:00;26.63;;;19.13;;
57663;SDS011;43493;53.098;6.064;2023-04-08T13:42:26;26.37;;;18.87;;
57663;SDS011;43493;53.098;6.064;2023-04-08T13:44:52;33.07;;;20.43;;
57663;SDS011;43493;53.098;6.064;2023-04-08T13:47:17;27.87;;;19.87;;
57663;SDS011;43493;53.098;6.064;2023-04-08T13:49:43;28.30;;;19.63;;
57663;SDS011;43493;53.098;6.064;2023-04-08T13:52:09;26.27;;;20.30;;
57663;SDS011;43493;53.098;6.064;2023-04-08T13:54:35;26.70;;;18.60;;
57663;SDS011;43493;53.098;6.064;2023-04-08T13:57:01;25.17;;;18.43;;
57663;SDS011;43493;53.098;6.064;2023-04-08T13:59:27;27.33;;;19.17;;
57663;SDS011;43493;53.098;6.064;2023-04-08T14:01:52;29.60;;;19.07;;
57663;SDS011;43493;53.098;6.064;2023-04-08T14:04:19;27.33;;;19.00;;
57663;SDS011;43493;53.098;6.064;2023-04-08T14:06:46;26.43;;;19.93;;
57663;SDS011;43493;53.098;6.064;2023-04-08T14:09:12;30.03;;;19.23;;
57663;SDS011;43493;53.098;6.064;2023-04-08T14:11:37;30.30;;;19.33;;
57663;SDS011;43493;53.098;6.064;2023-04-08T14:14:03;24.17;;;18.40;;
57663;SDS011;43493;53.098;6.064;2023-04-08T14:16:29;26.17;;;18.20;;
57663;SDS011;43493;53.098;6.064;2023-04-08T14:18:56;24.80;;;17.70;;
57663;SDS011;43493;53.098;6.064;2023-04-08T14:21:22;25.60;;;17.37;;
57663;SDS011;43493;53.098;6.064;2023-04-08T14:23:48;23.53;;;17.97;;
57663;SDS011;43493;53.098;6.064;2023-04-08T14:26:15;25.43;;;16.53;;
57663;SDS011;43493;53.098;6.064;2023-04-08T14:28:40;24.50;;;16.60;;
57663;SDS011;43493;53.098;6.064;2023-04-08T14:31:06;23.17;;;17.33;;
57663;SDS011;43493;53.098;6.064;2023-04-08T14:33:32;23.20;;;17.30;;
57663;SDS011;43493;53.098;6.064;2023-04-08T14:35:57;29.47;;;20.33;;
57663;SDS011;43493;53.098;6.064;2023-04-08T14:38:24;36.23;;;18.60;;
57663;SDS011;43493;53.098;6.064;2023-04-08T14:40:50;30.57;;;22.50;;
57663;SDS011;43493;53.098;6.064;2023-04-08T14:43:16;21.07;;;16.60;;